sensor_id;sensor_type;location;lat;lon;timestamp;temperature;humidity
53286;DHT22;39171;45.550;12.074;2022-09-27T00:04:19;20.00;78.40
53286;DHT22;39171;45.550;12.074;2022-09-27T00:10:21;19.90;78.50
53286;DHT22;39171;45.550;12.074;2022-09-27T00:16:25;19.90;78.50
53286;DHT22;39171;45.550;12.074;2022-09-27T00:22:27;19.90;78.40
53286;DHT22;39171;45.550;12.074;2022-09-27T00:28:29;19.90;78.60
53286;DHT22;39171;45.550;12.074;2022-09-27T00:34:31;19.90;78.70
53286;DHT22;39171;45.550;12.074;2022-09-27T00:40:33;20.00;78.60
53286;DHT22;39171;45.550;12.074;2022-09-27T00:46:47;19.90;78.50
53286;DHT22;39171;45.550;12.074;2022-09-27T00:59:26;20.00;78.50
53286;DHT22;39171;45.550;12.074;2022-09-27T01:05:28;20.00;78.50
53286;DHT22;39171;45.550;12.074;2022-09-27T01:11:34;20.00;78.60
53286;DHT22;39171;45.550;12.074;2022-09-27T01:30:20;19.90;78.80
53286;DHT22;39171;45.550;12.074;2022-09-27T01:42:46;19.90;78.70
53286;DHT22;39171;45.550;12.074;2022-09-27T01:48:54;19.90;78.70
53286;DHT22;39171;45.550;12.074;2022-09-27T01:55:00;19.80;78.70
53286;DHT22;39171;45.550;12.074;2022-09-27T02:01:25;19.80;78.70
53286;DHT22;39171;45.550;12.074;2022-09-27T02:14:02;19.90;78.90
53286;DHT22;39171;45.550;12.074;2022-09-27T02:20:39;19.80;78.90
53286;DHT22;39171;45.550;12.074;2022-09-27T02:26:46;19.80;78.80
53286;DHT22;39171;45.550;12.074;2022-09-27T02:32:49;19.80;78.90
53286;DHT22;39171;45.550;12.074;2022-09-27T02:38:51;19.80;79.20
53286;DHT22;39171;45.550;12.074;2022-09-27T02:44:56;19.80;79.20
53286;DHT22;39171;45.550;12.074;2022-09-27T03:04:09;19.80;79.30
53286;DHT22;39171;45.550;12.074;2022-09-27T03:10:26;19.80;79.30
53286;DHT22;39171;45.550;12.074;2022-09-27T03:16:28;19.70;79.20
53286;DHT22;39171;45.550;12.074;2022-09-27T03:22:44;19.80;79.30
53286;DHT22;39171;45.550;12.074;2022-09-27T03:28:46;19.80;79.20
53286;DHT22;39171;45.550;12.074;2022-09-27T03:34:48;19.80;79.20
53286;DHT22;39171;45.550;12.074;2022-09-27T03:40:50;19.80;79.30
53286;DHT22;39171;45.550;12.074;2022-09-27T03:46:52;19.70;79.30
53286;DHT22;39171;45.550;12.074;2022-09-27T03:52:53;19.80;79.20
53286;DHT22;39171;45.550;12.074;2022-09-27T03:58:56;19.80;79.40
53286;DHT22;39171;45.550;12.074;2022-09-27T04:04:58;19.70;79.60
53286;DHT22;39171;45.550;12.074;2022-09-27T04:11:01;19.70;79.50
53286;DHT22;39171;45.550;12.074;2022-09-27T04:17:04;19.70;79.50
53286;DHT22;39171;45.550;12.074;2022-09-27T04:23:23;19.70;79.70
53286;DHT22;39171;45.550;12.074;2022-09-27T04:29:27;19.70;79.70
53286;DHT22;39171;45.550;12.074;2022-09-27T04:35:29;19.70;79.60
53286;DHT22;39171;45.550;12.074;2022-09-27T04:41:49;19.70;79.60
53286;DHT22;39171;45.550;12.074;2022-09-27T04:47:51;19.70;79.70
53286;DHT22;39171;45.550;12.074;2022-09-27T04:53:55;19.70;79.70
53286;DHT22;39171;45.550;12.074;2022-09-27T04:59:56;19.70;79.70
53286;DHT22;39171;45.550;12.074;2022-09-27T05:06:00;19.70;79.80
53286;DHT22;39171;45.550;12.074;2022-09-27T05:12:03;19.70;79.70
53286;DHT22;39171;45.550;12.074;2022-09-27T05:18:14;19.70;79.70
53286;DHT22;39171;45.550;12.074;2022-09-27T05:24:40;19.70;79.80
53286;DHT22;39171;45.550;12.074;2022-09-27T05:30:42;19.70;79.80
53286;DHT22;39171;45.550;12.074;2022-09-27T05:36:51;19.70;80.50
53286;DHT22;39171;45.550;12.074;2022-09-27T05:42:52;19.70;80.20
53286;DHT22;39171;45.550;12.074;2022-09-27T05:48:54;19.70;80.10
53286;DHT22;39171;45.550;12.074;2022-09-27T05:54:56;19.70;80.40
53286;DHT22;39171;45.550;12.074;2022-09-27T06:01:00;19.60;80.30
53286;DHT22;39171;45.550;12.074;2022-09-27T06:07:30;19.60;80.40
53286;DHT22;39171;45.550;12.074;2022-09-27T06:13:34;19.60;80.40
53286;DHT22;39171;45.550;12.074;2022-09-27T06:19:40;19.60;80.40
53286;DHT22;39171;45.550;12.074;2022-09-27T06:25:41;19.60;80.50
53286;DHT22;39171;45.550;12.074;2022-09-27T06:31:54;19.60;80.70
53286;DHT22;39171;45.550;12.074;2022-09-27T06:38:13;19.60;80.80
53286;DHT22;39171;45.550;12.074;2022-09-27T06:44:24;19.50;80.90
53286;DHT22;39171;45.550;12.074;2022-09-27T06:50:45;19.60;80.90
53286;DHT22;39171;45.550;12.074;2022-09-27T06:56:47;19.60;81.10
53286;DHT22;39171;45.550;12.074;2022-09-27T07:02:49;19.50;80.80
53286;DHT22;39171;45.550;12.074;2022-09-27T07:09:05;19.60;80.90
53286;DHT22;39171;45.550;12.074;2022-09-27T07:15:09;19.60;80.80
53286;DHT22;39171;45.550;12.074;2022-09-27T07:21:11;19.60;80.80
53286;DHT22;39171;45.550;12.074;2022-09-27T07:27:13;19.60;80.70
53286;DHT22;39171;45.550;12.074;2022-09-27T07:33:15;19.60;80.60
53286;DHT22;39171;45.550;12.074;2022-09-27T07:39:18;19.70;80.50
53286;DHT22;39171;45.550;12.074;2022-09-27T07:45:22;19.60;80.40
53286;DHT22;39171;45.550;12.074;2022-09-27T07:51:44;19.60;80.30
53286;DHT22;39171;45.550;12.074;2022-09-27T07:58:05;19.60;80.60
53286;DHT22;39171;45.550;12.074;2022-09-27T08:04:08;19.60;80.60
53286;DHT22;39171;45.550;12.074;2022-09-27T08:10:09;19.60;80.70
53286;DHT22;39171;45.550;12.074;2022-09-27T08:16:12;19.60;80.50
53286;DHT22;39171;45.550;12.074;2022-09-27T08:22:46;19.60;80.50
53286;DHT22;39171;45.550;12.074;2022-09-27T08:29:01;19.70;80.40
53286;DHT22;39171;45.550;12.074;2022-09-27T08:35:07;19.70;80.20
53286;DHT22;39171;45.550;12.074;2022-09-27T08:47:24;19.70;80.10
53286;DHT22;39171;45.550;12.074;2022-09-27T08:53:38;19.70;80.30
53286;DHT22;39171;45.550;12.074;2022-09-27T09:00:07;19.70;80.10
53286;DHT22;39171;45.550;12.074;2022-09-27T09:13:00;19.70;80.20
53286;DHT22;39171;45.550;12.074;2022-09-27T09:19:31;19.70;80.20
53286;DHT22;39171;45.550;12.074;2022-09-27T09:38:46;19.70;80.00
53286;DHT22;39171;45.550;12.074;2022-09-27T09:45:05;19.70;79.70
53286;DHT22;39171;45.550;12.074;2022-09-27T09:51:18;19.70;79.50
53286;DHT22;39171;45.550;12.074;2022-09-27T09:57:35;19.70;79.60
53286;DHT22;39171;45.550;12.074;2022-09-27T10:03:42;19.70;79.60
53286;DHT22;39171;45.550;12.074;2022-09-27T10:09:44;19.70;79.70
53286;DHT22;39171;45.550;12.074;2022-09-27T10:16:19;19.70;79.50
53286;DHT22;39171;45.550;12.074;2022-09-27T10:22:31;19.70;79.40
53286;DHT22;39171;45.550;12.074;2022-09-27T10:28:43;19.80;79.60
53286;DHT22;39171;45.550;12.074;2022-09-27T10:34:47;19.80;79.30
53286;DHT22;39171;45.550;12.074;2022-09-27T10:40:53;19.80;79.30
53286;DHT22;39171;45.550;12.074;2022-09-27T10:47:19;19.80;79.30
53286;DHT22;39171;45.550;12.074;2022-09-27T10:53:45;19.80;78.70
53286;DHT22;39171;45.550;12.074;2022-09-27T11:00:18;19.80;78.80
53286;DHT22;39171;45.550;12.074;2022-09-27T11:12:27;19.80;78.30
53286;DHT22;39171;45.550;12.074;2022-09-27T11:31:48;19.80;78.10
53286;DHT22;39171;45.550;12.074;2022-09-27T11:44:31;19.90;78.00
53286;DHT22;39171;45.550;12.074;2022-09-27T12:09:20;19.90;77.70
53286;DHT22;39171;45.550;12.074;2022-09-27T12:15:31;19.90;77.50
53286;DHT22;39171;45.550;12.074;2022-09-27T12:21:36;19.90;77.20
53286;DHT22;39171;45.550;12.074;2022-09-27T12:27:55;19.90;77.00
53286;DHT22;39171;45.550;12.074;2022-09-27T12:34:10;20.00;76.90
53286;DHT22;39171;45.550;12.074;2022-09-27T12:40:30;20.00;76.70
53286;DHT22;39171;45.550;12.074;2022-09-27T12:53:18;20.00;76.70
53286;DHT22;39171;45.550;12.074;2022-09-27T13:18:49;20.10;76.20
53286;DHT22;39171;45.550;12.074;2022-09-27T13:24:56;20.10;76.20
53286;DHT22;39171;45.550;12.074;2022-09-27T13:45:40;20.20;75.70
53286;DHT22;39171;45.550;12.074;2022-09-27T13:51:49;20.20;75.50
53286;DHT22;39171;45.550;12.074;2022-09-27T13:58:01;20.20;75.40
53286;DHT22;39171;45.550;12.074;2022-09-27T14:04:39;20.20;75.20
53286;DHT22;39171;45.550;12.074;2022-09-27T14:10:42;20.10;75.10
53286;DHT22;39171;45.550;12.074;2022-09-27T14:16:47;20.10;75.10
53286;DHT22;39171;45.550;12.074;2022-09-27T14:22:53;20.20;75.10
53286;DHT22;39171;45.550;12.074;2022-09-27T14:28:56;20.20;75.10
53286;DHT22;39171;45.550;12.074;2022-09-27T14:35:18;20.20;75.10
53286;DHT22;39171;45.550;12.074;2022-09-27T14:41:39;20.20;75.00
53286;DHT22;39171;45.550;12.074;2022-09-27T14:47:49;20.20;75.00
53286;DHT22;39171;45.550;12.074;2022-09-27T14:53:52;20.20;75.00
53286;DHT22;39171;45.550;12.074;2022-09-27T14:59:57;20.20;75.00
53286;DHT22;39171;45.550;12.074;2022-09-27T15:06:01;20.20;74.90
53286;DHT22;39171;45.550;12.074;2022-09-27T15:12:04;20.20;74.80
53286;DHT22;39171;45.550;12.074;2022-09-27T15:18:29;20.10;74.70
53286;DHT22;39171;45.550;12.074;2022-09-27T15:24:42;20.20;74.70
53286;DHT22;39171;45.550;12.074;2022-09-27T15:30:57;20.10;74.60
53286;DHT22;39171;45.550;12.074;2022-09-27T15:37:02;20.10;74.60
53286;DHT22;39171;45.550;12.074;2022-09-27T15:43:19;20.10;74.60
53286;DHT22;39171;45.550;12.074;2022-09-27T15:49:28;20.10;74.60
53286;DHT22;39171;45.550;12.074;2022-09-27T15:55:32;20.10;74.60
53286;DHT22;39171;45.550;12.074;2022-09-27T16:01:34;20.10;74.60
53286;DHT22;39171;45.550;12.074;2022-09-27T16:07:35;20.10;74.60
53286;DHT22;39171;45.550;12.074;2022-09-27T16:13:37;20.10;74.60
53286;DHT22;39171;45.550;12.074;2022-09-27T16:19:38;20.10;74.60
53286;DHT22;39171;45.550;12.074;2022-09-27T16:25:40;20.10;74.60
53286;DHT22;39171;45.550;12.074;2022-09-27T16:31:41;20.10;74.60
53286;DHT22;39171;45.550;12.074;2022-09-27T16:37:44;20.10;74.60
53286;DHT22;39171;45.550;12.074;2022-09-27T16:43:46;20.10;74.60
53286;DHT22;39171;45.550;12.074;2022-09-27T16:49:47;20.10;74.60
53286;DHT22;39171;45.550;12.074;2022-09-27T16:56:07;20.10;74.60
53286;DHT22;39171;45.550;12.074;2022-09-27T17:02:09;20.10;74.60
53286;DHT22;39171;45.550;12.074;2022-09-27T17:08:11;20.10;74.70
53286;DHT22;39171;45.550;12.074;2022-09-27T17:14:13;20.10;74.80
53286;DHT22;39171;45.550;12.074;2022-09-27T17:20:17;20.10;75.00
53286;DHT22;39171;45.550;12.074;2022-09-27T17:26:23;20.10;75.30
53286;DHT22;39171;45.550;12.074;2022-09-27T17:32:31;20.10;75.50
53286;DHT22;39171;45.550;12.074;2022-09-27T17:38:34;20.00;75.70
53286;DHT22;39171;45.550;12.074;2022-09-27T17:44:36;20.00;75.60
53286;DHT22;39171;45.550;12.074;2022-09-27T17:50:38;20.00;76.20
53286;DHT22;39171;45.550;12.074;2022-09-27T17:56:41;20.10;76.50
53286;DHT22;39171;45.550;12.074;2022-09-27T18:02:43;20.00;76.40
53286;DHT22;39171;45.550;12.074;2022-09-27T18:08:48;20.00;76.50
53286;DHT22;39171;45.550;12.074;2022-09-27T18:14:49;20.00;76.80
53286;DHT22;39171;45.550;12.074;2022-09-27T18:20:51;20.00;76.80
53286;DHT22;39171;45.550;12.074;2022-09-27T18:26:53;20.00;77.60
53286;DHT22;39171;45.550;12.074;2022-09-27T18:32:55;20.00;77.60
53286;DHT22;39171;45.550;12.074;2022-09-27T18:38:59;20.00;77.40
53286;DHT22;39171;45.550;12.074;2022-09-27T18:45:01;20.00;77.70
53286;DHT22;39171;45.550;12.074;2022-09-27T18:51:14;19.90;78.00
53286;DHT22;39171;45.550;12.074;2022-09-27T18:57:15;20.00;78.20
53286;DHT22;39171;45.550;12.074;2022-09-27T19:03:17;19.90;78.40
53286;DHT22;39171;45.550;12.074;2022-09-27T19:09:19;19.80;78.20
53286;DHT22;39171;45.550;12.074;2022-09-27T19:15:20;19.90;78.30
53286;DHT22;39171;45.550;12.074;2022-09-27T19:21:26;19.90;78.30
53286;DHT22;39171;45.550;12.074;2022-09-27T19:27:29;19.90;78.40
53286;DHT22;39171;45.550;12.074;2022-09-27T19:33:35;19.90;78.40
53286;DHT22;39171;45.550;12.074;2022-09-27T19:39:36;19.80;78.50
53286;DHT22;39171;45.550;12.074;2022-09-27T19:45:38;19.90;78.60
53286;DHT22;39171;45.550;12.074;2022-09-27T19:51:45;19.80;78.60
53286;DHT22;39171;45.550;12.074;2022-09-27T19:57:46;19.80;78.70
53286;DHT22;39171;45.550;12.074;2022-09-27T20:03:50;19.80;78.70
53286;DHT22;39171;45.550;12.074;2022-09-27T20:09:51;19.80;79.40
53286;DHT22;39171;45.550;12.074;2022-09-27T20:16:18;19.80;79.20
53286;DHT22;39171;45.550;12.074;2022-09-27T20:22:20;19.80;79.50
53286;DHT22;39171;45.550;12.074;2022-09-27T20:28:21;19.80;79.50
53286;DHT22;39171;45.550;12.074;2022-09-27T20:34:23;19.80;79.10
53286;DHT22;39171;45.550;12.074;2022-09-27T20:40:25;19.70;79.30
53286;DHT22;39171;45.550;12.074;2022-09-27T20:46:26;19.80;79.50
53286;DHT22;39171;45.550;12.074;2022-09-27T20:52:28;19.80;79.50
53286;DHT22;39171;45.550;12.074;2022-09-27T20:58:30;19.70;79.50
53286;DHT22;39171;45.550;12.074;2022-09-27T21:04:32;19.70;79.50
53286;DHT22;39171;45.550;12.074;2022-09-27T21:10:33;19.70;79.80
53286;DHT22;39171;45.550;12.074;2022-09-27T21:16:35;19.70;80.20
53286;DHT22;39171;45.550;12.074;2022-09-27T21:22:36;19.70;80.10
53286;DHT22;39171;45.550;12.074;2022-09-27T21:28:43;19.70;80.40
53286;DHT22;39171;45.550;12.074;2022-09-27T21:34:44;19.70;80.20
53286;DHT22;39171;45.550;12.074;2022-09-27T21:40:56;19.70;80.10
53286;DHT22;39171;45.550;12.074;2022-09-27T21:46:58;19.70;80.40
53286;DHT22;39171;45.550;12.074;2022-09-27T21:52:59;19.60;80.50
53286;DHT22;39171;45.550;12.074;2022-09-27T21:59:01;19.70;80.50
53286;DHT22;39171;45.550;12.074;2022-09-27T22:05:03;19.70;80.60
53286;DHT22;39171;45.550;12.074;2022-09-27T22:11:06;19.60;80.80
53286;DHT22;39171;45.550;12.074;2022-09-27T22:17:08;19.60;80.60
53286;DHT22;39171;45.550;12.074;2022-09-27T22:23:09;19.60;80.90
53286;DHT22;39171;45.550;12.074;2022-09-27T22:29:11;19.60;80.80
53286;DHT22;39171;45.550;12.074;2022-09-27T22:35:13;19.60;80.90
53286;DHT22;39171;45.550;12.074;2022-09-27T22:41:15;19.50;80.90
53286;DHT22;39171;45.550;12.074;2022-09-27T22:47:17;19.50;80.80
53286;DHT22;39171;45.550;12.074;2022-09-27T22:53:18;19.50;80.90
53286;DHT22;39171;45.550;12.074;2022-09-27T22:59:19;19.50;80.70
53286;DHT22;39171;45.550;12.074;2022-09-27T23:05:21;19.50;80.50
53286;DHT22;39171;45.550;12.074;2022-09-27T23:11:23;19.50;80.40
53286;DHT22;39171;45.550;12.074;2022-09-27T23:17:24;19.50;80.40
53286;DHT22;39171;45.550;12.074;2022-09-27T23:23:25;19.50;80.40
53286;DHT22;39171;45.550;12.074;2022-09-27T23:29:27;19.50;80.40
53286;DHT22;39171;45.550;12.074;2022-09-27T23:35:28;19.50;80.40
53286;DHT22;39171;45.550;12.074;2022-09-27T23:41:31;19.50;80.40
53286;DHT22;39171;45.550;12.074;2022-09-27T23:47:32;19.50;80.40
53286;DHT22;39171;45.550;12.074;2022-09-27T23:53:35;19.50;80.70
53286;DHT22;39171;45.550;12.074;2022-09-27T23:59:37;19.40;80.50
